Time,TemperatureF,DewpointF,PressureIn,WindDirection,WindDirectionDegrees,WindSpeedMPH,WindSpeedGustMPH,Humidity,HourlyPrecipIn,Conditions,Clouds,dailyrainin,SoftwareType,DateUTC
2013-01-30 00:00:00,62.3,59.0,30.00,ESE,110,8.0,11.0,90,0.00,,,0.00,weatherlink.com 1.10,2013-01-30 05:00:00,
2013-01-30 00:15:00,62.2,60.0,30.00,SE,137,6.0,10.0,91,0.00,,,0.00,weatherlink.com 1.10,2013-01-30 05:15:00,
2013-01-30 00:30:00,62.5,60.0,30.00,SE,132,2.0,13.0,91,0.00,,,0.00,weatherlink.com 1.10,2013-01-30 05:30:00,
2013-01-30 00:45:00,62.6,60.0,30.00,ESE,102,4.0,13.0,91,0.00,,,0.00,weatherlink.com 1.10,2013-01-30 05:45:00,
2013-01-30 01:00:00,62.3,60.0,29.98,East,89,7.0,15.0,92,0.00,,,0.00,weatherlink.com 1.10,2013-01-30 06:00:00,
2013-01-30 01:15:00,61.9,60.0,29.97,East,87,6.0,17.0,92,0.00,,,0.00,weatherlink.com 1.10,2013-01-30 06:15:00,
2013-01-30 01:30:00,61.6,60.0,29.96,ESE,106,9.0,13.0,93,0.00,,,0.00,weatherlink.com 1.10,2013-01-30 06:30:00,
2013-01-30 01:45:00,61.3,60.0,29.96,East,100,8.0,11.0,94,0.00,,,0.00,weatherlink.com 1.10,2013-01-30 06:45:00,
2013-01-30 02:15:00,61.0,60.0,29.95,ESE,114,3.0,11.0,95,0.00,,,0.00,weatherlink.com 1.10,2013-01-30 07:15:00,
2013-01-30 02:30:00,61.0,60.0,29.95,ESE,123,9.0,15.0,95,0.00,,,0.00,weatherlink.com 1.10,2013-01-30 07:30:00,
2013-01-30 02:45:00,60.9,60.0,29.95,ESE,119,4.0,13.0,96,0.00,,,0.00,weatherlink.com 1.10,2013-01-30 07:45:00,
2013-01-30 03:00:00,60.9,60.0,29.95,ESE,104,9.0,12.0,96,0.00,,,0.00,weatherlink.com 1.10,2013-01-30 08:00:00,
2013-01-30 03:15:00,60.9,60.0,29.94,East,95,6.0,14.0,96,0.00,,,0.00,weatherlink.com 1.10,2013-01-30 08:15:00,
2013-01-30 03:31:00,60.8,60.0,29.93,ESE,107,5.0,14.0,96,0.00,,,0.00,weatherlink.com 1.10,2013-01-30 08:31:00,
2013-01-30 03:46:00,60.9,60.0,29.93,ESE,112,5.0,14.0,96,0.00,,,0.00,weatherlink.com 1.10,2013-01-30 08:46:00,
2013-01-30 04:01:00,60.9,60.0,29.91,East,87,9.0,13.0,96,0.00,,,0.00,weatherlink.com 1.10,2013-01-30 09:01:00,
2013-01-30 04:16:00,60.8,60.0,29.91,ESE,114,2.0,11.0,96,0.00,,,0.00,weatherlink.com 1.10,2013-01-30 09:16:00,
2013-01-30 04:31:00,61.0,60.0,29.90,East,101,4.0,12.0,97,0.00,,,0.00,weatherlink.com 1.10,2013-01-30 09:31:00,
2013-01-30 04:46:00,61.1,60.0,29.90,ESE,121,5.0,13.0,97,0.00,,,0.00,weatherlink.com 1.10,2013-01-30 09:46:00,
2013-01-30 05:01:00,61.0,60.0,29.90,SE,136,6.0,16.0,97,0.00,,,0.00,weatherlink.com 1.10,2013-01-30 10:01:00,
2013-01-30 05:16:00,61.0,60.0,29.88,ESE,104,8.0,14.0,97,0.00,,,0.00,weatherlink.com 1.10,2013-01-30 10:16:00,
2013-01-30 05:31:00,61.0,60.0,29.89,ESE,106,0.0,11.0,97,0.00,,,0.00,weatherlink.com 1.10,2013-01-30 10:31:00,
2013-01-30 05:46:00,60.9,60.0,29.88,East,89,9.0,17.0,98,0.00,,,0.00,weatherlink.com 1.10,2013-01-30 10:46:00,
2013-01-30 06:01:00,60.8,61.0,29.86,SE,134,8.0,13.0,99,0.00,,,0.00,weatherlink.com 1.10,2013-01-30 11:01:00,
2013-01-30 06:16:00,60.9,61.0,29.86,ESE,108,7.0,11.0,99,0.00,,,0.00,weatherlink.com 1.10,2013-01-30 11:16:00,
2013-01-30 06:31:00,61.3,61.0,29.87,ESE,116,2.0,13.0,99,0.00,,,0.00,weatherlink.com 1.10,2013-01-30 11:31:00,
2013-01-30 06:46:00,61.6,61.0,29.86,East,99,4.0,15.0,99,0.00,,,0.00,weatherlink.com 1.10,2013-01-30 11:46:00,
2013-01-30 07:01:00,61.9,62.0,29.86,East,98,4.0,21.0,99,0.00,,,0.00,weatherlink.com 1.10,2013-01-30 12:01:00,
2013-01-30 07:16:00,62.3,62.0,29.85,ESE,112,7.0,15.0,98,0.00,,,0.00,weatherlink.com 1.10,2013-01-30 12:16:00,
2013-01-30 07:31:00,62.6,62.0,29.85,SE,139,6.0,15.0,97,0.00,,,0.00,weatherlink.com 1.10,2013-01-30 12:31:00,
2013-01-30 07:46:00,63.3,62.0,29.84,SE,129,7.0,21.0,95,0.00,,,0.00,weatherlink.com 1.10,2013-01-30 12:46:00,
2013-01-30 08:01:00,63.4,62.0,29.84,ESE,119,4.0,15.0,95,0.00,,,0.00,weatherlink.com 1.10,2013-01-30 13:01:00,
2013-01-30 08:16:00,63.6,62.0,29.82,ESE,117,11.0,24.0,94,0.00,,,0.00,weatherlink.com 1.10,2013-01-30 13:16:00,
2013-01-30 08:31:00,63.8,62.0,29.82,East,86,8.0,24.0,94,0.00,,,0.00,weatherlink.com 1.10,2013-01-30 13:31:00,
2013-01-30 08:46:00,64.1,62.0,29.81,ESE,104,7.0,19.0,93,0.00,,,0.00,weatherlink.com 1.10,2013-01-30 13:46:00,
2013-01-30 09:01:00,64.2,62.0,29.81,ESE,121,13.0,18.0,93,0.00,,,0.00,weatherlink.com 1.10,2013-01-30 14:01:00,
2013-01-30 09:16:00,64.5,62.0,29.81,SSE,158,6.0,22.0,92,0.00,,,0.00,weatherlink.com 1.10,2013-01-30 14:16:00,
2013-01-30 09:31:00,64.7,62.0,29.82,ESE,106,5.0,16.0,92,0.00,,,0.00,weatherlink.com 1.10,2013-01-30 14:31:00,
2013-01-30 09:46:00,65.2,63.0,29.82,ESE,114,11.0,21.0,91,0.00,,,0.00,weatherlink.com 1.10,2013-01-30 14:46:00,
2013-01-30 10:01:00,65.2,62.0,29.81,ESE,115,8.0,16.0,90,0.00,,,0.00,weatherlink.com 1.10,2013-01-30 15:01:00,
2013-01-30 10:16:00,65.5,62.0,29.80,ESE,112,8.0,17.0,89,0.00,,,0.00,weatherlink.com 1.10,2013-01-30 15:16:00,
2013-01-30 10:31:00,65.7,62.0,29.79,SSE,148,9.0,14.0,88,0.00,,,0.00,weatherlink.com 1.10,2013-01-30 15:31:00,
2013-01-30 10:46:00,66.0,62.0,29.77,ESE,112,7.0,18.0,87,0.00,,,0.00,weatherlink.com 1.10,2013-01-30 15:46:00,
2013-01-30 11:01:00,66.4,62.0,29.77,SE,139,5.0,19.0,86,0.00,,,0.00,weatherlink.com 1.10,2013-01-30 16:01:00,
2013-01-30 11:16:00,66.4,62.0,29.77,SE,126,7.0,21.0,86,0.00,,,0.00,weatherlink.com 1.10,2013-01-30 16:16:00,
2013-01-30 11:31:00,66.6,62.0,29.76,SE,144,5.0,23.0,85,0.00,,,0.00,weatherlink.com 1.10,2013-01-30 16:31:00,
2013-01-30 11:47:00,66.9,62.0,29.75,ESE,109,12.0,18.0,84,0.00,,,0.00,weatherlink.com 1.10,2013-01-30 16:47:00,
2013-01-30 12:02:00,67.1,62.0,29.74,SSE,158,6.0,25.0,84,0.00,,,0.00,weatherlink.com 1.10,2013-01-30 17:02:00,
2013-01-30 12:17:00,67.2,62.0,29.72,SSE,156,6.0,17.0,83,0.00,,,0.00,weatherlink.com 1.10,2013-01-30 17:17:00,
2013-01-30 12:32:00,67.6,62.0,29.70,SE,125,6.0,17.0,83,0.00,,,0.00,weatherlink.com 1.10,2013-01-30 17:32:00,
2013-01-30 12:47:00,67.8,62.0,29.69,ESE,115,9.0,23.0,82,0.00,,,0.00,weatherlink.com 1.10,2013-01-30 17:47:00,
2013-01-30 13:02:00,68.1,62.0,29.68,East,97,15.0,19.0,82,0.00,,,0.00,weatherlink.com 1.10,2013-01-30 18:02:00,
2013-01-30 13:17:00,68.2,62.0,29.66,SE,141,6.0,18.0,81,0.00,,,0.00,weatherlink.com 1.10,2013-01-30 18:17:00,
2013-01-30 13:32:00,68.2,62.0,29.65,ESE,102,2.0,18.0,81,0.00,,,0.00,weatherlink.com 1.10,2013-01-30 18:32:00,
2013-01-30 13:47:00,68.3,62.0,29.64,SE,129,5.0,18.0,81,0.00,,,0.00,weatherlink.com 1.10,2013-01-30 18:47:00,
2013-01-30 14:02:00,68.5,63.0,29.63,East,81,13.0,18.0,81,0.00,,,0.00,weatherlink.com 1.10,2013-01-30 19:02:00,
2013-01-30 14:17:00,68.6,62.0,29.61,ESE,102,14.0,21.0,80,0.00,,,0.00,weatherlink.com 1.10,2013-01-30 19:17:00,
2013-01-30 14:32:00,68.2,62.0,29.61,East,94,16.0,21.0,81,0.00,,,0.00,weatherlink.com 1.10,2013-01-30 19:32:00,
2013-01-30 14:47:00,68.4,62.0,29.59,ESE,110,16.0,17.0,81,0.00,,,0.00,weatherlink.com 1.10,2013-01-30 19:47:00,
2013-01-30 15:02:00,68.5,62.0,29.59,ESE,118,2.0,22.0,80,0.00,,,0.00,weatherlink.com 1.10,2013-01-30 20:02:00,
2013-01-30 15:17:00,68.9,62.0,29.57,ESE,102,15.0,18.0,79,0.00,,,0.00,weatherlink.com 1.10,2013-01-30 20:17:00,
2013-01-30 15:32:00,68.9,63.0,29.56,ESE,116,4.0,21.0,80,0.01,,,0.01,weatherlink.com 1.10,2013-01-30 20:32:00,
2013-01-30 15:47:00,67.0,62.0,29.55,SE,127,3.0,14.0,84,0.01,,,0.01,weatherlink.com 1.10,2013-01-30 20:47:00,
2013-01-30 16:02:00,67.7,62.0,29.54,East,94,10.0,19.0,82,0.01,,,0.01,weatherlink.com 1.10,2013-01-30 21:02:00,
2013-01-30 16:17:00,68.3,62.0,29.52,East,98,8.0,19.0,80,0.01,,,0.01,weatherlink.com 1.10,2013-01-30 21:17:00,
2013-01-30 16:32:00,69.4,62.0,29.50,East,100,30.0,30.0,76,0.00,,,0.01,weatherlink.com 1.10,2013-01-30 21:32:00,
2013-01-30 16:47:00,70.0,61.0,29.48,ESE,102,13.0,25.0,74,0.00,,,0.01,weatherlink.com 1.10,2013-01-30 21:47:00,
2013-01-30 17:02:00,70.3,61.0,29.47,East,92,17.0,28.0,73,0.00,,,0.01,weatherlink.com 1.10,2013-01-30 22:02:00,
2013-01-30 17:17:00,70.0,61.0,29.46,ESE,120,15.0,34.0,74,0.01,,,0.02,weatherlink.com 1.10,2013-01-30 22:17:00,
2013-01-30 17:32:00,65.7,62.0,29.46,ESE,104,8.0,24.0,88,0.05,,,0.06,weatherlink.com 1.10,2013-01-30 22:32:00,
2013-01-30 17:47:00,64.0,62.0,29.45,ESE,105,7.0,11.0,94,0.10,,,0.11,weatherlink.com 1.10,2013-01-30 22:47:00,
2013-01-30 18:02:00,63.1,62.0,29.44,SE,143,6.0,8.0,97,0.20,,,0.21,weatherlink.com 1.10,2013-01-30 23:02:00,
2013-01-30 18:17:00,62.4,62.0,29.45,SE,128,0.0,5.0,99,0.23,,,0.25,weatherlink.com 1.10,2013-01-30 23:17:00,
2013-01-30 18:33:00,62.7,63.0,29.45,ESE,106,15.0,35.0,100,0.52,,,0.58,weatherlink.com 1.10,2013-01-30 23:33:00,
2013-01-30 18:48:00,62.6,63.0,29.45,SE,146,7.0,13.0,100,0.51,,,0.63,weatherlink.com 1.10,2013-01-30 23:48:00,
2013-01-30 19:06:00,61.5,62.0,29.46,SE,141,7.0,14.0,100,0.70,,,0.92,weatherlink.com 1.10,2013-01-31 00:06:00,
2013-01-30 19:18:00,60.5,61.0,29.44,SSE,148,4.0,12.0,100,0.88,,,1.13,weatherlink.com 1.10,2013-01-31 00:18:00,
2013-01-30 19:33:00,60.0,60.0,29.46,SSE,154,4.0,12.0,100,0.59,,,1.17,weatherlink.com 1.10,2013-01-31 00:33:00,
2013-01-30 19:48:00,59.6,60.0,29.46,SSE,153,1.0,6.0,100,0.60,,,1.23,weatherlink.com 1.10,2013-01-31 00:48:00,
2013-01-30 20:03:00,59.4,59.0,29.44,ESE,120,3.0,7.0,100,0.50,,,1.25,weatherlink.com 1.10,2013-01-31 01:03:00,
2013-01-30 20:18:00,59.2,59.0,29.45,ESE,118,3.0,8.0,100,0.13,,,1.26,weatherlink.com 1.10,2013-01-31 01:18:00,
2013-01-30 20:33:00,59.0,59.0,29.47,SE,133,1.0,10.0,100,0.08,,,1.26,weatherlink.com 1.10,2013-01-31 01:33:00,
2013-01-30 20:48:00,58.7,59.0,29.46,SE,127,4.0,14.0,100,0.03,,,1.26,weatherlink.com 1.10,2013-01-31 01:48:00,
2013-01-30 21:03:00,57.8,58.0,29.48,SSE,151,4.0,13.0,100,0.02,,,1.27,weatherlink.com 1.10,2013-01-31 02:03:00,
2013-01-30 21:18:00,56.9,56.0,29.46,ESE,105,7.0,19.0,97,0.02,,,1.28,weatherlink.com 1.10,2013-01-31 02:18:00,
2013-01-30 21:33:00,55.9,54.0,29.47,SSE,148,9.0,15.0,93,0.02,,,1.28,weatherlink.com 1.10,2013-01-31 02:33:00,
2013-01-30 21:48:00,55.0,53.0,29.49,SE,139,7.0,12.0,92,0.02,,,1.28,weatherlink.com 1.10,2013-01-31 02:48:00,
2013-01-30 22:03:00,54.3,52.0,29.51,SE,130,5.0,15.0,91,0.01,,,1.28,weatherlink.com 1.10,2013-01-31 03:03:00,
2013-01-30 22:18:00,52.7,51.0,29.52,SE,143,4.0,12.0,94,0.00,,,1.28,weatherlink.com 1.10,2013-01-31 03:18:00,
2013-01-30 22:33:00,51.4,51.0,29.49,SSE,159,2.0,10.0,97,0.01,,,1.29,weatherlink.com 1.10,2013-01-31 03:33:00,
2013-01-30 22:48:00,50.9,50.0,29.52,SE,139,3.0,17.0,96,0.02,,,1.30,weatherlink.com 1.10,2013-01-31 03:48:00,
2013-01-30 23:03:00,50.4,50.0,29.52,SE,131,5.0,15.0,97,0.02,,,1.30,weatherlink.com 1.10,2013-01-31 04:03:00,
2013-01-30 23:19:00,49.7,48.0,29.52,SE,125,4.0,18.0,94,0.01,,,1.30,weatherlink.com 1.10,2013-01-31 04:19:00,
2013-01-30 23:34:00,48.5,47.0,29.52,SE,128,4.0,16.0,93,0.01,,,1.30,weatherlink.com 1.10,2013-01-31 04:34:00,
2013-01-30 23:49:00,47.5,45.0,29.52,SSE,152,3.0,14.0,92,0.00,,,1.30,weatherlink.com 1.10,2013-01-31 04:49:00,